createdAt,value
2022-12-25T00:01:12.346Z,99.90
2022-12-25T00:03:39.681Z,99.90
2022-12-25T00:06:07.208Z,99.90
2022-12-25T00:08:35.013Z,99.90
2022-12-25T00:11:13.401Z,99.90
2022-12-25T00:13:40.769Z,99.90
2022-12-25T00:16:10.112Z,99.90
2022-12-25T00:18:36.995Z,99.90
2022-12-25T00:21:06.498Z,99.90
2022-12-25T00:23:34.678Z,99.90
2022-12-25T00:26:08.230Z,99.90
2022-12-25T00:28:36.196Z,99.90
2022-12-25T00:31:15.589Z,99.90
2022-12-25T00:33:44.671Z,99.90
2022-12-25T00:36:13.345Z,99.90
2022-12-25T00:38:41.356Z,99.90
2022-12-25T00:41:53.002Z,99.90
2022-12-25T00:44:19.922Z,99.90
2022-12-25T00:46:46.792Z,99.90
2022-12-25T00:49:13.739Z,99.90
2022-12-25T00:51:40.704Z,99.90
2022-12-25T00:54:08.263Z,99.90
2022-12-25T00:56:35.683Z,99.90
2022-12-25T00:59:02.851Z,99.90
2022-12-25T01:01:29.839Z,99.90
2022-12-25T01:03:56.852Z,99.90
2022-12-25T01:06:23.808Z,99.90
2022-12-25T01:09:09.185Z,99.90
2022-12-25T01:11:36.401Z,99.90
2022-12-25T01:14:03.702Z,99.90
2022-12-25T01:16:30.755Z,99.90
2022-12-25T01:18:57.647Z,99.90
2022-12-25T01:21:24.613Z,99.90
2022-12-25T01:23:52.901Z,99.90
2022-12-25T01:26:22.510Z,99.90
2022-12-25T01:28:50.397Z,99.90
2022-12-25T01:31:19.921Z,99.90
2022-12-25T01:33:47.542Z,99.90
2022-12-25T01:36:23.007Z,99.90
2022-12-25T01:38:51.087Z,99.90
2022-12-25T01:41:20.959Z,99.90
2022-12-25T01:44:02.586Z,99.90
2022-12-25T01:46:30.271Z,99.90
2022-12-25T01:49:01.304Z,99.90
2022-12-25T01:51:37.565Z,99.90
2022-12-25T01:54:08.245Z,99.90
2022-12-25T01:56:37.773Z,99.90
2022-12-25T01:59:06.859Z,99.90
2022-12-25T02:01:34.001Z,99.90
2022-12-25T02:04:19.645Z,99.90
2022-12-25T02:06:48.176Z,99.90
2022-12-25T02:09:15.815Z,99.90
2022-12-25T02:11:57.786Z,99.90
2022-12-25T02:14:27.338Z,99.90
2022-12-25T02:17:20.510Z,99.90
2022-12-25T02:20:14.014Z,99.90
2022-12-25T02:22:56.102Z,99.90
2022-12-25T02:25:35.203Z,99.90
2022-12-25T02:28:17.237Z,99.90
2022-12-25T02:30:55.485Z,99.90
2022-12-25T02:34:12.388Z,99.90
2022-12-25T02:36:58.355Z,99.90
2022-12-25T02:39:58.435Z,99.90
2022-12-25T02:43:06.883Z,99.90
2022-12-25T02:45:55.129Z,99.90
2022-12-25T02:48:44.392Z,99.90
2022-12-25T02:51:34.627Z,99.90
2022-12-25T02:54:26.179Z,99.90
2022-12-25T02:57:14.040Z,99.90
2022-12-25T03:00:02.592Z,99.90
2022-12-25T03:02:51.640Z,99.90
2022-12-25T03:05:42.548Z,99.90
2022-12-25T03:08:17.954Z,99.90
2022-12-25T03:11:08.095Z,99.90
2022-12-25T03:13:39.729Z,99.90
2022-12-25T03:16:25.942Z,99.90
2022-12-25T03:18:55.891Z,99.90
2022-12-25T03:21:41.417Z,99.90
2022-12-25T03:24:26.610Z,99.90
2022-12-25T03:26:56.487Z,99.90
2022-12-25T03:29:50.139Z,99.90
2022-12-25T03:32:47.011Z,99.90
2022-12-25T03:35:44.735Z,99.90
2022-12-25T03:38:46.596Z,99.90
2022-12-25T03:41:52.512Z,99.90
2022-12-25T03:44:51.973Z,99.90
2022-12-25T03:48:05.897Z,99.90
2022-12-25T03:51:10.718Z,99.90
2022-12-25T03:54:00.907Z,99.90
2022-12-25T03:56:48.272Z,99.90
2022-12-25T03:59:38.927Z,99.90
2022-12-25T04:02:24.547Z,99.90
2022-12-25T04:05:10.077Z,99.90
2022-12-25T04:07:55.588Z,99.90
2022-12-25T04:10:41.149Z,99.90
2022-12-25T04:13:26.332Z,99.90
2022-12-25T04:16:12.937Z,99.90
2022-12-25T04:18:58.812Z,99.90
2022-12-25T04:21:44.304Z,99.90
2022-12-25T04:24:30.278Z,99.90
2022-12-25T04:27:15.758Z,99.90
2022-12-25T04:30:01.127Z,99.90
2022-12-25T04:32:46.334Z,99.90
2022-12-25T04:35:31.723Z,99.90
2022-12-25T04:37:58.657Z,99.90
2022-12-25T04:40:25.540Z,99.90
2022-12-25T04:42:52.975Z,99.90
2022-12-25T04:45:19.827Z,99.90
2022-12-25T04:47:46.814Z,99.90
2022-12-25T04:50:13.665Z,99.90
2022-12-25T04:52:42.046Z,99.90
2022-12-25T04:55:10.358Z,99.90
2022-12-25T04:57:37.552Z,99.90
2022-12-25T05:00:06.226Z,99.90
2022-12-25T05:02:33.241Z,99.90
2022-12-25T05:05:00.381Z,99.90
2022-12-25T05:07:27.332Z,99.90
2022-12-25T05:09:54.180Z,99.90
2022-12-25T05:12:21.164Z,99.90
2022-12-25T05:14:48.049Z,99.90
2022-12-25T05:17:14.872Z,99.90
2022-12-25T05:19:42.472Z,99.90
2022-12-25T05:22:09.892Z,99.90
2022-12-25T05:24:36.811Z,99.90
2022-12-25T05:27:03.738Z,99.90
2022-12-25T05:29:30.610Z,99.90
2022-12-25T05:31:57.480Z,99.90
2022-12-25T05:34:24.414Z,99.90
2022-12-25T05:36:51.252Z,99.90
2022-12-25T05:39:18.265Z,99.90
2022-12-25T05:41:45.158Z,99.90
2022-12-25T05:44:11.999Z,99.90
2022-12-25T05:46:38.967Z,99.90
2022-12-25T05:49:06.028Z,99.90
2022-12-25T05:51:33.258Z,99.90
2022-12-25T05:54:00.492Z,99.90
2022-12-25T05:56:27.706Z,99.90
2022-12-25T05:58:54.692Z,99.90
2022-12-25T06:01:25.267Z,99.90
2022-12-25T06:03:52.223Z,99.90
2022-12-25T06:06:19.403Z,99.90
2022-12-25T06:08:46.515Z,99.90
2022-12-25T06:11:14.674Z,99.90
2022-12-25T06:13:41.964Z,99.90
2022-12-25T06:16:10.762Z,99.90
2022-12-25T06:18:39.763Z,99.90
2022-12-25T06:21:08.422Z,99.90
2022-12-25T06:23:36.422Z,99.90
2022-12-25T06:26:08.799Z,99.90
2022-12-25T06:28:36.113Z,99.90
2022-12-25T06:31:11.529Z,99.90
2022-12-25T06:33:39.157Z,99.90
2022-12-25T06:36:11.126Z,99.90
2022-12-25T06:38:38.011Z,99.90
2022-12-25T06:41:08.246Z,99.90
2022-12-25T06:43:35.120Z,99.90
2022-12-25T06:46:11.829Z,99.90
2022-12-25T06:48:40.921Z,99.90
2022-12-25T06:51:07.890Z,99.90
2022-12-25T06:53:39.703Z,99.90
2022-12-25T06:56:09.374Z,99.90
2022-12-25T06:58:36.278Z,99.90
2022-12-25T07:01:15.507Z,99.90
2022-12-25T07:03:44.242Z,99.90
2022-12-25T07:06:11.443Z,99.90
2022-12-25T07:08:38.295Z,99.90
2022-12-25T07:11:06.621Z,99.90
2022-12-25T07:13:33.474Z,99.90
2022-12-25T07:16:02.377Z,99.90
2022-12-25T07:18:30.076Z,99.90
2022-12-25T07:20:59.444Z,99.90
2022-12-25T07:23:27.027Z,99.90
2022-12-25T07:25:59.692Z,99.90
2022-12-25T07:28:27.369Z,99.90
2022-12-25T07:30:54.215Z,99.90
2022-12-25T07:33:21.379Z,99.90
2022-12-25T07:35:48.257Z,99.90
2022-12-25T07:38:15.092Z,99.90
2022-12-25T07:40:46.016Z,99.90
2022-12-25T07:43:13.467Z,99.90
2022-12-25T07:45:40.406Z,99.90
2022-12-25T07:48:11.922Z,99.90
2022-12-25T07:50:42.231Z,99.90
2022-12-25T07:53:09.065Z,99.90
2022-12-25T07:55:35.946Z,99.90
2022-12-25T07:58:02.807Z,99.90
2022-12-25T08:00:32.679Z,99.90
2022-12-25T08:03:00.210Z,99.90
2022-12-25T08:05:27.373Z,99.90
2022-12-25T08:07:57.805Z,99.90
2022-12-25T08:10:25.783Z,99.90
2022-12-25T08:12:56.360Z,99.90
2022-12-25T08:15:23.266Z,99.90
2022-12-25T08:17:50.126Z,99.90
2022-12-25T08:20:16.986Z,99.90
2022-12-25T08:22:43.861Z,99.90
2022-12-25T08:25:10.737Z,99.90
2022-12-25T08:27:37.625Z,99.90
2022-12-25T08:30:05.089Z,99.90
2022-12-25T08:32:35.482Z,99.90
2022-12-25T08:35:02.282Z,99.90
2022-12-25T08:37:32.320Z,99.90
2022-12-25T08:39:59.195Z,99.90
2022-12-25T08:42:26.053Z,99.90
2022-12-25T08:44:52.975Z,99.90
2022-12-25T08:47:19.847Z,99.90
2022-12-25T08:49:46.725Z,99.90
2022-12-25T08:52:13.817Z,99.90
2022-12-25T08:54:40.650Z,99.90
2022-12-25T08:57:07.490Z,99.90
2022-12-25T08:59:34.322Z,99.90
2022-12-25T09:02:01.334Z,99.90
2022-12-25T09:04:28.366Z,99.90
2022-12-25T09:06:55.291Z,99.90
2022-12-25T09:09:27.404Z,99.90
2022-12-25T09:11:54.389Z,99.90
2022-12-25T09:14:22.042Z,99.90
2022-12-25T09:16:51.365Z,99.90
2022-12-25T09:19:18.262Z,99.90
2022-12-25T09:21:45.197Z,99.90
2022-12-25T09:24:12.110Z,99.90
2022-12-25T09:26:39.041Z,99.90
2022-12-25T09:29:05.923Z,99.90
2022-12-25T09:31:32.842Z,99.90
2022-12-25T09:33:59.755Z,99.90
2022-12-25T09:36:27.554Z,99.90
2022-12-25T09:38:54.412Z,99.90
2022-12-25T09:41:46.279Z,99.90
2022-12-25T09:44:27.059Z,99.90
2022-12-25T09:46:58.218Z,89.80
2022-12-25T09:49:42.175Z,89.80
2022-12-25T09:52:16.544Z,46.10
2022-12-25T09:55:20.715Z,25.20
2022-12-25T09:57:54.304Z,1.00
2022-12-25T10:00:27.636Z,1.00
2022-12-25T10:03:21.878Z,1.00
2022-12-25T10:06:16.490Z,1.00
2022-12-25T10:08:57.479Z,1.00
2022-12-25T10:11:35.853Z,1.00
2022-12-25T10:14:05.957Z,7.00
2022-12-25T10:16:54.172Z,13.90
2022-12-25T10:19:27.301Z,22.00
2022-12-25T10:22:01.117Z,38.00
2022-12-25T10:24:32.048Z,33.10
2022-12-25T10:27:04.229Z,31.00
2022-12-25T10:29:32.776Z,54.40
2022-12-25T10:31:59.800Z,73.20
2022-12-25T10:34:28.898Z,87.30
2022-12-25T10:36:55.891Z,69.90
2022-12-25T10:39:26.420Z,95.20
2022-12-25T10:42:14.461Z,89.50
2022-12-25T10:44:41.313Z,54.10
2022-12-25T10:47:08.337Z,18.30
2022-12-25T10:49:39.608Z,7.40
2022-12-25T10:52:24.796Z,1.00
2022-12-25T10:54:51.838Z,1.00
2022-12-25T10:57:22.177Z,1.00
2022-12-25T10:59:58.171Z,1.00
2022-12-25T11:02:31.049Z,1.00
2022-12-25T11:05:10.882Z,1.00
2022-12-25T11:07:54.828Z,1.00
2022-12-25T11:10:33.176Z,1.00
2022-12-25T11:13:01.203Z,1.00
2022-12-25T11:15:46.073Z,1.00
2022-12-25T11:18:22.087Z,1.00
2022-12-25T11:20:50.584Z,1.00
2022-12-25T11:23:23.057Z,1.00
2022-12-25T11:26:19.112Z,1.00
2022-12-25T11:28:48.954Z,1.00
2022-12-25T11:31:21.887Z,1.00
2022-12-25T11:34:03.518Z,1.00
2022-12-25T11:36:42.298Z,1.00
2022-12-25T11:39:21.399Z,5.00
2022-12-25T11:41:51.319Z,25.70
2022-12-25T11:44:28.427Z,33.30
2022-12-25T11:46:56.458Z,41.40
2022-12-25T11:49:24.382Z,27.60
2022-12-25T11:51:55.575Z,50.20
2022-12-25T11:54:45.985Z,50.40
2022-12-25T11:57:13.740Z,30.10
2022-12-25T11:59:54.056Z,43.80
2022-12-25T12:02:34.547Z,35.70
2022-12-25T12:05:26.519Z,42.50
2022-12-25T12:08:02.861Z,57.20
2022-12-25T12:10:46.262Z,57.80
2022-12-25T12:13:16.175Z,54.50
2022-12-25T12:15:46.158Z,52.70
2022-12-25T12:18:20.363Z,50.00
2022-12-25T12:21:08.547Z,43.90
2022-12-25T12:23:48.931Z,20.40
2022-12-25T12:26:43.548Z,19.50
2022-12-25T12:29:27.268Z,3.90
2022-12-25T12:31:59.766Z,1.00
2022-12-25T12:34:37.410Z,1.00
2022-12-25T12:37:07.605Z,1.00
2022-12-25T12:39:39.443Z,1.00
2022-12-25T12:42:23.253Z,1.00
2022-12-25T12:44:50.580Z,1.00
2022-12-25T12:47:41.743Z,1.00
2022-12-25T12:50:28.735Z,1.00
2022-12-25T12:52:56.345Z,1.00
2022-12-25T12:55:31.976Z,1.00
2022-12-25T12:58:01.300Z,1.00
2022-12-25T13:00:55.356Z,1.00
2022-12-25T13:03:43.549Z,1.00
2022-12-25T13:06:17.226Z,1.00
2022-12-25T13:09:05.437Z,1.00
2022-12-25T13:11:38.886Z,1.00
2022-12-25T13:14:06.260Z,1.00
2022-12-25T13:16:39.531Z,1.00
2022-12-25T13:19:11.510Z,1.00
2022-12-25T13:21:38.592Z,1.00
2022-12-25T13:24:18.231Z,1.00
2022-12-25T13:26:45.116Z,1.00
2022-12-25T13:29:36.070Z,1.00
2022-12-25T13:32:05.803Z,1.00
2022-12-25T13:34:41.657Z,1.00
2022-12-25T13:37:16.515Z,1.00
2022-12-25T13:39:56.327Z,1.00
2022-12-25T13:42:26.481Z,99.90
2022-12-25T13:44:53.386Z,1.00
2022-12-25T13:47:49.944Z,99.90
2022-12-25T13:50:34.025Z,1.00
2022-12-25T13:53:13.018Z,99.90
2022-12-25T13:55:41.804Z,1.00
2022-12-25T13:58:22.693Z,1.00
2022-12-25T14:00:53.052Z,1.00
2022-12-25T14:03:33.365Z,1.00
2022-12-25T14:06:03.351Z,99.90
2022-12-25T14:08:33.673Z,99.90
2022-12-25T14:11:07.823Z,1.00
2022-12-25T14:13:38.822Z,1.00
2022-12-25T14:16:06.884Z,1.00
2022-12-25T14:18:34.260Z,1.00
2022-12-25T14:21:09.693Z,1.00
2022-12-25T14:23:55.451Z,1.00
2022-12-25T14:26:26.177Z,1.00
2022-12-25T14:28:54.806Z,1.00
2022-12-25T14:31:23.584Z,1.00
2022-12-25T14:33:52.292Z,1.00
2022-12-25T14:36:19.382Z,1.00
2022-12-25T14:38:57.296Z,1.00
2022-12-25T14:41:37.841Z,1.00
2022-12-25T14:44:26.573Z,1.00
2022-12-25T14:47:05.060Z,1.00
2022-12-25T14:49:32.907Z,1.00
2022-12-25T14:51:59.850Z,1.00
2022-12-25T14:54:27.367Z,1.00
2022-12-25T14:56:56.304Z,1.00
2022-12-25T14:59:26.283Z,1.00
2022-12-25T15:01:59.384Z,5.10
2022-12-25T15:04:27.132Z,14.30
2022-12-25T15:06:59.439Z,15.20
2022-12-25T15:09:30.029Z,14.70
2022-12-25T15:11:57.293Z,12.00
2022-12-25T15:14:25.456Z,19.80
2022-12-25T15:16:58.085Z,19.60
2022-12-25T15:19:37.761Z,33.80
2022-12-25T15:22:06.196Z,42.90
2022-12-25T15:24:33.148Z,35.20
2022-12-25T15:27:00.814Z,47.60
2022-12-25T15:30:07.219Z,57.70
2022-12-25T15:32:21.055Z,56.20
2022-12-25T15:34:49.980Z,65.90
2022-12-25T15:37:18.350Z,62.60
2022-12-25T15:39:45.737Z,76.20
2022-12-25T15:42:15.141Z,99.90
2022-12-25T15:44:42.915Z,99.90
2022-12-25T15:47:11.665Z,99.90
2022-12-25T15:49:38.821Z,99.90
2022-12-25T15:52:07.537Z,99.90
2022-12-25T15:54:34.439Z,99.90
2022-12-25T15:57:03.819Z,99.90
2022-12-25T15:59:30.801Z,99.90
2022-12-25T16:02:00.407Z,99.90
2022-12-25T16:04:29.179Z,99.90
2022-12-25T16:06:56.484Z,99.90
2022-12-25T16:09:23.535Z,99.90
2022-12-25T16:11:50.506Z,99.90
2022-12-25T16:14:18.890Z,99.90
2022-12-25T16:16:45.832Z,99.90
2022-12-25T16:19:12.774Z,99.90
2022-12-25T16:21:45.702Z,99.90
2022-12-25T16:24:14.048Z,99.90
2022-12-25T16:26:41.090Z,99.90
2022-12-25T16:29:08.105Z,99.90
2022-12-25T16:31:36.189Z,99.90
2022-12-25T16:34:04.065Z,99.90
2022-12-25T16:36:31.029Z,99.90
2022-12-25T16:38:58.033Z,99.90
2022-12-25T16:41:24.889Z,99.90
2022-12-25T16:43:51.731Z,99.90
2022-12-25T16:46:21.143Z,99.90
2022-12-25T16:48:48.453Z,99.90
2022-12-25T16:51:20.590Z,99.90
2022-12-25T16:53:47.712Z,99.90
2022-12-25T16:56:17.852Z,99.90
2022-12-25T16:58:48.848Z,99.90
2022-12-25T17:01:17.893Z,99.90
2022-12-25T17:03:45.630Z,99.90
2022-12-25T17:06:15.331Z,99.90
2022-12-25T17:08:42.646Z,99.90
2022-12-25T17:11:10.063Z,99.90
2022-12-25T17:13:36.882Z,99.90
2022-12-25T17:16:22.946Z,99.90
2022-12-25T17:18:57.590Z,99.90
2022-12-25T17:21:25.061Z,99.90
2022-12-25T17:23:54.315Z,99.90
2022-12-25T17:26:25.009Z,99.90
2022-12-25T17:28:52.084Z,99.90
2022-12-25T17:31:19.106Z,99.90
2022-12-25T17:33:46.366Z,99.90
2022-12-25T17:36:16.038Z,99.90
2022-12-25T17:38:43.516Z,99.90
2022-12-25T17:41:12.517Z,99.90
2022-12-25T17:43:42.444Z,99.90
2022-12-25T17:46:16.922Z,99.90
2022-12-25T17:48:44.788Z,99.90
2022-12-25T17:51:14.359Z,99.90
2022-12-25T17:53:43.357Z,99.90
2022-12-25T17:56:11.520Z,99.90
2022-12-25T17:58:39.237Z,99.90
2022-12-25T18:01:15.326Z,99.90
2022-12-25T18:03:43.576Z,99.90
2022-12-25T18:06:13.756Z,99.90
2022-12-25T18:08:42.411Z,99.90
2022-12-25T18:11:15.256Z,99.90
2022-12-25T18:13:45.040Z,99.90
2022-12-25T18:16:12.995Z,99.90
2022-12-25T18:18:40.483Z,99.90
2022-12-25T18:21:08.479Z,99.90
2022-12-25T18:23:36.385Z,99.90
2022-12-25T18:26:09.018Z,99.90
2022-12-25T18:28:35.902Z,99.90
2022-12-25T18:31:06.765Z,99.90
2022-12-25T18:33:33.797Z,99.90
2022-12-25T18:36:01.551Z,99.90
2022-12-25T18:38:28.613Z,99.90
2022-12-25T18:40:56.142Z,99.90
2022-12-25T18:43:52.401Z,99.90
2022-12-25T18:46:10.175Z,99.90
2022-12-25T18:48:37.890Z,99.90
2022-12-25T18:51:08.153Z,99.90
2022-12-25T18:53:35.942Z,99.90
2022-12-25T18:56:09.667Z,99.90
2022-12-25T18:58:38.037Z,99.90
2022-12-25T19:01:12.098Z,99.90
2022-12-25T19:03:39.639Z,99.90
2022-12-25T19:06:07.022Z,99.90
2022-12-25T19:08:33.982Z,99.90
2022-12-25T19:11:00.920Z,99.90
2022-12-25T19:13:27.864Z,99.90
2022-12-25T19:15:58.706Z,99.90
2022-12-25T19:18:26.040Z,99.90
2022-12-25T19:20:52.902Z,99.90
2022-12-25T19:23:19.747Z,99.90
2022-12-25T19:25:46.655Z,99.90
2022-12-25T19:28:13.507Z,99.90
2022-12-25T19:30:40.330Z,99.90
2022-12-25T19:33:10.070Z,99.90
2022-12-25T19:35:41.632Z,99.90
2022-12-25T19:38:08.478Z,99.90
2022-12-25T19:41:00.278Z,99.90
2022-12-25T19:43:29.117Z,99.90
2022-12-25T19:45:56.238Z,99.90
2022-12-25T19:48:23.590Z,99.90
2022-12-25T19:50:50.752Z,99.90
2022-12-25T19:53:18.503Z,99.90
2022-12-25T19:55:45.607Z,99.90
2022-12-25T19:58:12.814Z,99.90
2022-12-25T20:00:40.504Z,99.90
2022-12-25T20:03:08.186Z,99.90
2022-12-25T20:05:35.232Z,99.90
2022-12-25T20:08:02.620Z,99.90
2022-12-25T20:10:29.458Z,99.90
2022-12-25T20:12:56.345Z,99.90
2022-12-25T20:15:23.146Z,99.90
2022-12-25T20:17:49.984Z,99.90
2022-12-25T20:20:16.963Z,99.90
2022-12-25T20:22:43.792Z,99.90
2022-12-25T20:25:11.467Z,99.90
2022-12-25T20:27:38.374Z,99.90
2022-12-25T20:30:06.075Z,99.90
2022-12-25T20:32:32.946Z,99.90
2022-12-25T20:34:59.796Z,99.90
2022-12-25T20:37:26.726Z,99.90
2022-12-25T20:39:53.528Z,99.90
2022-12-25T20:42:20.428Z,99.90
2022-12-25T20:44:47.354Z,99.90
2022-12-25T20:47:14.434Z,99.90
2022-12-25T20:49:41.381Z,99.90
2022-12-25T20:52:08.261Z,99.90
2022-12-25T20:54:35.131Z,99.90
2022-12-25T20:57:02.144Z,99.90
2022-12-25T20:59:35.210Z,99.90
2022-12-25T21:02:04.352Z,99.90
2022-12-25T21:04:31.361Z,99.90
2022-12-25T21:06:58.241Z,99.90
2022-12-25T21:09:25.115Z,99.90
2022-12-25T21:11:52.029Z,99.90
2022-12-25T21:14:18.969Z,99.90
2022-12-25T21:16:45.930Z,99.90
2022-12-25T21:19:12.790Z,99.90
2022-12-25T21:21:43.661Z,99.90
2022-12-25T21:24:11.083Z,99.90
2022-12-25T21:26:40.742Z,99.90
2022-12-25T21:29:10.109Z,99.90
2022-12-25T21:31:55.294Z,99.90
2022-12-25T21:34:22.655Z,99.90
2022-12-25T21:36:49.577Z,99.90
2022-12-25T21:39:16.623Z,99.90
2022-12-25T21:41:43.924Z,99.90
2022-12-25T21:44:10.998Z,99.90
2022-12-25T21:46:37.992Z,99.90
2022-12-25T21:49:05.051Z,99.90
2022-12-25T21:51:52.497Z,99.90
2022-12-25T21:54:21.565Z,99.90
2022-12-25T21:56:49.264Z,99.90
2022-12-25T21:59:18.829Z,99.90
2022-12-25T22:01:46.761Z,99.90
2022-12-25T22:04:15.457Z,99.90
2022-12-25T22:07:01.150Z,99.90
2022-12-25T22:09:28.194Z,99.90
2022-12-25T22:12:13.502Z,99.20
2022-12-25T22:14:57.020Z,99.80
2022-12-25T22:17:51.556Z,90.30
2022-12-25T22:20:19.943Z,76.60
2022-12-25T22:22:46.957Z,55.10
2022-12-25T22:25:14.564Z,41.20
2022-12-25T22:27:43.241Z,29.80
2022-12-25T22:30:16.599Z,23.00
2022-12-25T22:32:43.797Z,14.00
2022-12-25T22:35:12.349Z,6.30
2022-12-25T22:37:40.500Z,1.00
2022-12-25T22:40:08.260Z,1.00
2022-12-25T22:42:35.162Z,1.00
2022-12-25T22:45:02.487Z,1.00
2022-12-25T22:47:29.473Z,1.00
2022-12-25T22:49:56.444Z,1.00
2022-12-25T22:52:23.407Z,1.00
2022-12-25T22:54:50.238Z,1.00
2022-12-25T22:57:17.183Z,1.00
2022-12-25T22:59:44.313Z,1.00
2022-12-25T23:02:11.267Z,1.00
2022-12-25T23:04:38.184Z,1.00
2022-12-25T23:07:05.079Z,1.00
2022-12-25T23:09:31.968Z,1.00
2022-12-25T23:11:59.760Z,1.00
2022-12-25T23:14:39.358Z,1.00
2022-12-25T23:17:30.533Z,1.00
2022-12-25T23:20:17.131Z,1.00
2022-12-25T23:23:03.121Z,1.00
2022-12-25T23:25:49.066Z,1.00
2022-12-25T23:28:35.907Z,1.00
2022-12-25T23:31:02.814Z,1.00
2022-12-25T23:33:29.705Z,1.00
2022-12-25T23:35:56.591Z,1.00
2022-12-25T23:38:23.553Z,1.00
2022-12-25T23:40:50.401Z,1.00
2022-12-25T23:43:17.272Z,1.00
2022-12-25T23:45:44.255Z,1.00
2022-12-25T23:48:11.114Z,1.00
2022-12-25T23:50:37.965Z,1.00
2022-12-25T23:53:04.825Z,99.90
2022-12-25T23:55:32.916Z,99.90
2022-12-25T23:57:59.808Z,99.90
